Main page
METAR-TAF:

METAR-TAF

Airports :

Cherry Capital Airport

Traverse City, Michigan, United States

latitude: 44-44-12N, longitude: 085-34-12W, elevation: 190 m

Current weather observation

The report was made 38 minutes ago, at 10:53 UTC
Calm wind
Temperature 11°C
Humidity 87%
Pressure 1022 hPa
Visibility: 16.1 km
Few clouds at a height of 6000 ft
Few clouds at a height of 12000 ft

METAR: KTVC 151053Z 00000KT 10SM FEW060 FEW120 11/09 A3018 RMK AO2 SLP221 T01060089

Time: 07:31 (11:31 UTC)

Forecast

The report was made 6 hours and 11 minutes ago, at 05:20 UTC
Forecast valid from 15 at 06 UTC to 16 at 06 UTC
Wind kt from the North
Visibility: 10 km
Clear sky

TAF: KTVC 150520Z 1506/1606 00000KT P6SM SKC

Weather observations and forecasts of more than 4000 airports (METAR and TAF reports).

The available stations are represented by yellow and red dots on the map.

Hover mouse over dot to see the name of the station.

Then click to see weather observations and forecasts.

To change the map : click on the green buttons with a black cross to zoom in, on the green button with a dash to zoom out, or on the green arrows for adjacent maps.


METAR-TAF: